createdAt,value
2022-11-29T00:02:14.222Z,6.90
2022-11-29T00:05:00.527Z,6.90
2022-11-29T00:07:46.429Z,6.80
2022-11-29T00:10:35.369Z,6.80
2022-11-29T00:13:21.378Z,6.80
2022-11-29T00:16:09.535Z,6.70
2022-11-29T00:18:55.841Z,6.70
2022-11-29T00:21:41.722Z,6.70
2022-11-29T00:24:27.898Z,6.70
2022-11-29T00:27:15.510Z,6.80
2022-11-29T00:30:01.592Z,6.90
2022-11-29T00:32:47.437Z,6.90
2022-11-29T00:35:33.571Z,7.00
2022-11-29T00:38:19.689Z,7.10
2022-11-29T00:41:06.135Z,7.20
2022-11-29T00:43:52.294Z,7.30
2022-11-29T00:46:38.660Z,7.40
2022-11-29T00:49:25.244Z,7.40
2022-11-29T00:52:11.125Z,7.60
2022-11-29T00:54:56.970Z,7.60
2022-11-29T00:57:44.550Z,7.70
2022-11-29T01:00:31.729Z,7.80
2022-11-29T01:03:18.023Z,7.80
2022-11-29T01:06:06.931Z,7.90
2022-11-29T01:08:53.896Z,8.00
2022-11-29T01:11:40.151Z,8.00
2022-11-29T01:14:26.491Z,8.00
2022-11-29T01:17:12.895Z,8.10
2022-11-29T01:19:59.128Z,8.10
2022-11-29T01:22:45.209Z,8.20
2022-11-29T01:25:32.098Z,8.20
2022-11-29T01:28:18.494Z,8.10
2022-11-29T01:31:14.155Z,8.20
2022-11-29T01:34:01.811Z,8.20
2022-11-29T01:36:47.957Z,8.20
2022-11-29T01:39:33.933Z,8.20
2022-11-29T01:42:20.305Z,8.20
2022-11-29T01:45:20.928Z,8.20
2022-11-29T01:48:07.362Z,8.20
2022-11-29T01:50:55.679Z,8.30
2022-11-29T01:53:41.707Z,8.30
2022-11-29T01:56:30.383Z,8.40
2022-11-29T01:59:21.871Z,8.30
2022-11-29T02:02:16.156Z,8.30
2022-11-29T02:05:03.678Z,8.30
2022-11-29T02:07:52.858Z,8.40
2022-11-29T02:10:51.024Z,8.40
2022-11-29T02:14:03.893Z,8.40
2022-11-29T02:17:05.158Z,8.40
2022-11-29T02:20:29.505Z,8.40
2022-11-29T02:23:36.892Z,8.40
2022-11-29T02:26:53.771Z,8.40
2022-11-29T02:30:07.655Z,8.40
2022-11-29T02:33:16.483Z,8.40
2022-11-29T02:36:40.043Z,8.40
2022-11-29T02:39:50.931Z,8.40
2022-11-29T02:42:56.031Z,8.40
2022-11-29T02:46:04.614Z,8.50
2022-11-29T02:48:54.460Z,8.50
2022-11-29T02:52:12.301Z,8.50
2022-11-29T02:55:18.098Z,8.50
2022-11-29T02:58:32.256Z,8.50
2022-11-29T03:01:33.627Z,8.50
2022-11-29T03:04:31.901Z,8.50
2022-11-29T03:07:36.007Z,8.50
2022-11-29T03:10:38.798Z,8.50
2022-11-29T03:13:52.875Z,8.50
2022-11-29T03:16:43.579Z,8.50
2022-11-29T03:19:35.749Z,8.50
2022-11-29T03:22:28.107Z,8.60
2022-11-29T03:25:19.765Z,8.60
2022-11-29T03:28:15.254Z,8.50
2022-11-29T03:31:18.143Z,8.50
2022-11-29T03:34:57.346Z,8.60
2022-11-29T03:38:10.675Z,8.60
2022-11-29T03:41:18.019Z,8.60
2022-11-29T03:44:04.107Z,8.60
2022-11-29T03:46:57.246Z,8.60
2022-11-29T03:49:45.885Z,8.50
2022-11-29T03:53:00.033Z,8.50
2022-11-29T03:56:00.188Z,8.50
2022-11-29T03:59:03.131Z,8.50
2022-11-29T04:02:20.234Z,8.40
2022-11-29T04:05:33.643Z,8.40
2022-11-29T04:08:44.456Z,8.40
2022-11-29T04:11:58.957Z,8.40
2022-11-29T04:15:03.904Z,8.40
2022-11-29T04:18:08.814Z,8.50
2022-11-29T04:21:01.874Z,8.40
2022-11-29T04:24:12.375Z,8.40
2022-11-29T04:27:35.498Z,8.40
2022-11-29T04:30:26.967Z,8.40
2022-11-29T04:33:54.616Z,8.50
2022-11-29T04:36:48.799Z,8.40
2022-11-29T04:39:49.828Z,8.50
2022-11-29T04:42:51.105Z,8.40
2022-11-29T04:45:45.945Z,8.50
2022-11-29T04:48:55.738Z,8.50
2022-11-29T04:52:15.983Z,8.50
2022-11-29T04:55:05.216Z,8.50
2022-11-29T04:58:21.573Z,8.40
2022-11-29T05:01:30.856Z,8.40
2022-11-29T05:04:42.206Z,8.40
2022-11-29T05:07:43.642Z,8.40
2022-11-29T05:11:00.694Z,8.30
2022-11-29T05:13:58.761Z,8.30
2022-11-29T05:17:06.699Z,8.30
2022-11-29T05:20:23.647Z,8.30
2022-11-29T05:23:47.645Z,8.30
2022-11-29T05:26:44.399Z,8.30
2022-11-29T05:29:55.489Z,8.30
2022-11-29T05:33:14.594Z,8.30
2022-11-29T05:36:28.131Z,8.20
2022-11-29T05:39:33.360Z,8.30
2022-11-29T05:42:42.498Z,8.30
2022-11-29T05:46:02.760Z,8.20
2022-11-29T05:48:53.498Z,8.20
2022-11-29T05:52:05.978Z,8.20
2022-11-29T05:55:04.272Z,8.20
2022-11-29T05:58:27.079Z,8.20
2022-11-29T06:01:23.988Z,8.20
2022-11-29T06:04:20.011Z,8.20
2022-11-29T06:07:19.706Z,8.20
2022-11-29T06:10:11.652Z,8.20
2022-11-29T06:13:18.683Z,8.20
2022-11-29T06:16:35.284Z,8.20
2022-11-29T06:20:01.894Z,8.20
2022-11-29T06:23:21.109Z,8.10
2022-11-29T06:26:29.224Z,8.10
2022-11-29T06:29:26.189Z,8.10
2022-11-29T06:32:46.697Z,8.10
2022-11-29T06:35:39.947Z,8.10
2022-11-29T06:38:30.488Z,8.00
2022-11-29T06:41:22.878Z,8.00
2022-11-29T06:44:10.681Z,8.00
2022-11-29T06:47:11.969Z,8.00
2022-11-29T06:50:27.742Z,7.90
2022-11-29T06:53:38.000Z,7.90
2022-11-29T06:56:48.591Z,7.90
2022-11-29T07:00:04.130Z,7.90
2022-11-29T07:03:03.374Z,7.90
2022-11-29T07:05:49.735Z,7.90
2022-11-29T07:08:35.773Z,7.90
2022-11-29T07:11:23.845Z,7.90
2022-11-29T07:14:13.963Z,7.80
2022-11-29T07:17:13.869Z,7.80
2022-11-29T07:20:24.164Z,7.80
2022-11-29T07:23:21.671Z,7.80
2022-11-29T07:26:21.988Z,7.80
2022-11-29T07:29:13.736Z,7.80
2022-11-29T07:32:14.839Z,7.80
2022-11-29T07:35:24.665Z,7.80
2022-11-29T07:38:25.840Z,7.80
2022-11-29T07:41:21.046Z,7.80
2022-11-29T07:44:21.208Z,7.80
2022-11-29T07:47:08.852Z,7.80
2022-11-29T07:49:54.835Z,7.80
2022-11-29T07:52:40.812Z,7.80
2022-11-29T07:55:27.506Z,7.80
2022-11-29T07:58:14.982Z,7.80
2022-11-29T08:01:01.348Z,7.80
2022-11-29T08:03:47.420Z,7.70
2022-11-29T08:06:37.609Z,7.80
2022-11-29T08:09:23.870Z,7.80
2022-11-29T08:12:10.274Z,7.80
2022-11-29T08:14:56.340Z,7.80
2022-11-29T08:17:42.713Z,7.90
2022-11-29T08:20:31.419Z,7.90
2022-11-29T08:23:17.386Z,7.90
2022-11-29T08:26:03.975Z,7.90
2022-11-29T08:28:57.542Z,7.90
2022-11-29T08:31:43.599Z,7.90
2022-11-29T08:34:29.830Z,7.90
2022-11-29T08:37:15.902Z,7.90
2022-11-29T08:40:04.580Z,7.80
2022-11-29T08:42:50.518Z,7.80
2022-11-29T08:45:36.483Z,7.90
2022-11-29T08:48:22.427Z,7.90
2022-11-29T08:51:08.435Z,7.90
2022-11-29T08:53:54.437Z,7.90
2022-11-29T08:59:46.271Z,7.90
2022-11-29T09:02:32.214Z,7.90
2022-11-29T09:05:18.158Z,7.80
2022-11-29T09:08:04.264Z,7.80
2022-11-29T09:10:50.320Z,7.90
2022-11-29T09:13:37.009Z,7.90
2022-11-29T09:16:26.249Z,7.90
2022-11-29T09:19:14.281Z,7.90
2022-11-29T09:22:00.119Z,7.90
2022-11-29T09:24:47.061Z,8.00
2022-11-29T09:27:33.642Z,8.00
2022-11-29T09:30:23.657Z,7.90
2022-11-29T09:33:09.921Z,8.10
2022-11-29T09:35:58.227Z,8.10
2022-11-29T09:38:44.421Z,8.20
2022-11-29T09:41:48.954Z,8.10
2022-11-29T09:45:12.577Z,8.10
2022-11-29T09:48:02.234Z,8.10
2022-11-29T09:51:42.710Z,8.20
2022-11-29T09:54:42.908Z,8.20
2022-11-29T09:57:31.376Z,8.20
2022-11-29T10:00:21.053Z,8.20
2022-11-29T10:03:18.557Z,8.20
2022-11-29T10:06:17.601Z,8.20
2022-11-29T10:09:45.139Z,8.20
2022-11-29T10:12:51.776Z,8.30
2022-11-29T10:15:44.352Z,8.30
2022-11-29T10:18:38.454Z,8.40
2022-11-29T10:21:32.223Z,8.20
2022-11-29T10:24:22.147Z,8.40
2022-11-29T10:27:29.621Z,8.40
2022-11-29T10:30:16.538Z,8.40
2022-11-29T10:33:02.800Z,8.40
2022-11-29T10:35:51.099Z,8.40
2022-11-29T10:38:37.357Z,8.40
2022-11-29T10:41:26.843Z,8.40
2022-11-29T10:44:14.854Z,8.40
2022-11-29T10:47:10.937Z,8.50
2022-11-29T10:49:57.531Z,8.50
2022-11-29T10:52:43.644Z,8.50
2022-11-29T10:55:36.313Z,8.60
2022-11-29T10:58:28.471Z,8.60
2022-11-29T11:01:16.713Z,8.60
2022-11-29T11:04:04.366Z,8.60
2022-11-29T11:06:55.573Z,8.60
2022-11-29T11:09:50.872Z,8.60
2022-11-29T11:12:37.470Z,8.60
2022-11-29T11:15:28.681Z,8.60
2022-11-29T11:18:25.675Z,8.60
2022-11-29T11:21:14.516Z,8.70
2022-11-29T11:24:03.010Z,8.70
2022-11-29T11:26:49.147Z,8.70
2022-11-29T11:29:42.247Z,8.70
2022-11-29T11:32:28.771Z,8.70
2022-11-29T11:35:24.287Z,8.70
2022-11-29T11:38:17.806Z,8.70
2022-11-29T11:41:47.941Z,8.70
2022-11-29T11:44:50.052Z,8.70
2022-11-29T11:47:42.231Z,8.70
2022-11-29T11:50:39.243Z,8.70
2022-11-29T11:53:35.739Z,8.70
2022-11-29T11:56:23.703Z,8.70
2022-11-29T11:59:19.979Z,8.60
2022-11-29T12:02:38.641Z,8.60
2022-11-29T12:05:25.257Z,8.60
2022-11-29T12:08:13.346Z,8.60
2022-11-29T12:11:07.443Z,8.60
2022-11-29T12:13:58.047Z,8.60
2022-11-29T12:16:47.791Z,8.60
2022-11-29T12:19:42.112Z,8.60
2022-11-29T12:22:37.403Z,8.60
2022-11-29T12:25:35.751Z,8.60
2022-11-29T12:28:25.413Z,8.60
2022-11-29T12:31:39.251Z,8.60
2022-11-29T12:34:47.057Z,8.60
2022-11-29T12:37:49.373Z,8.60
2022-11-29T12:41:00.570Z,8.60
2022-11-29T12:44:05.343Z,8.60
2022-11-29T12:47:28.199Z,8.60
2022-11-29T12:50:34.419Z,8.60
2022-11-29T12:53:27.626Z,8.60
2022-11-29T12:56:20.600Z,8.70
2022-11-29T12:59:34.787Z,8.70
2022-11-29T13:02:40.701Z,8.70
2022-11-29T13:05:42.148Z,8.70
2022-11-29T13:09:08.136Z,8.70
2022-11-29T13:12:03.214Z,8.80
2022-11-29T13:14:49.743Z,8.70
2022-11-29T13:18:02.580Z,8.80
2022-11-29T13:21:02.201Z,8.90
2022-11-29T13:24:09.192Z,8.80
2022-11-29T13:26:56.423Z,8.80
2022-11-29T13:29:42.962Z,8.80
2022-11-29T13:32:47.705Z,8.80
2022-11-29T13:35:46.868Z,8.80
2022-11-29T13:38:38.931Z,8.80
2022-11-29T13:41:42.142Z,8.80
2022-11-29T13:44:31.182Z,8.80
2022-11-29T13:47:18.986Z,8.80
2022-11-29T13:50:36.933Z,8.80
2022-11-29T13:53:25.760Z,8.90
2022-11-29T13:56:36.028Z,8.90
2022-11-29T13:59:30.393Z,8.90
2022-11-29T14:02:30.552Z,8.90
2022-11-29T14:05:28.243Z,8.90
2022-11-29T14:08:48.129Z,8.80
2022-11-29T14:11:42.865Z,8.90
2022-11-29T14:14:50.180Z,8.90
2022-11-29T14:17:50.428Z,8.90
2022-11-29T14:20:39.855Z,8.80
2022-11-29T14:23:32.327Z,8.80
2022-11-29T14:26:28.498Z,8.80
2022-11-29T14:29:50.808Z,8.80
2022-11-29T14:32:56.299Z,8.80
2022-11-29T14:35:48.976Z,8.80
2022-11-29T14:38:46.417Z,8.80
2022-11-29T14:41:38.455Z,8.80
2022-11-29T14:44:29.945Z,8.80
2022-11-29T14:47:26.970Z,8.70
2022-11-29T14:50:30.516Z,8.70
2022-11-29T14:53:33.715Z,8.80
2022-11-29T14:56:39.177Z,8.70
2022-11-29T14:59:50.976Z,8.80
2022-11-29T15:02:46.447Z,8.70
2022-11-29T15:05:36.990Z,8.70
2022-11-29T15:08:48.064Z,8.70
2022-11-29T15:12:14.522Z,8.70
2022-11-29T15:15:28.420Z,8.70
2022-11-29T15:18:23.771Z,8.70
2022-11-29T15:21:32.207Z,8.70
2022-11-29T15:24:19.699Z,8.70
2022-11-29T15:27:05.865Z,8.70
2022-11-29T15:29:52.801Z,8.80
2022-11-29T15:32:38.941Z,8.70
2022-11-29T15:35:25.359Z,8.70
2022-11-29T15:38:18.161Z,8.70
2022-11-29T15:41:04.035Z,8.70
2022-11-29T15:43:59.750Z,8.70
2022-11-29T15:46:45.609Z,8.70
2022-11-29T15:49:31.974Z,8.70
2022-11-29T15:52:38.323Z,8.70
2022-11-29T15:55:25.447Z,8.70
2022-11-29T15:58:15.809Z,8.70
2022-11-29T16:01:03.105Z,8.70
2022-11-29T16:03:54.269Z,8.70
2022-11-29T16:06:42.696Z,8.70
2022-11-29T16:09:40.493Z,8.60
2022-11-29T16:12:26.902Z,8.60
2022-11-29T16:15:42.425Z,8.60
2022-11-29T16:18:29.295Z,8.70
2022-11-29T16:21:30.236Z,8.70
2022-11-29T16:24:23.091Z,8.70
2022-11-29T16:27:11.169Z,8.70
2022-11-29T16:29:58.035Z,8.70
2022-11-29T16:32:48.114Z,8.70
2022-11-29T16:35:34.919Z,8.70
2022-11-29T16:38:23.098Z,8.70
2022-11-29T16:41:41.211Z,8.60
2022-11-29T16:44:39.686Z,8.60
2022-11-29T16:47:28.460Z,8.60
2022-11-29T16:50:21.011Z,8.60
2022-11-29T16:53:36.468Z,8.60
2022-11-29T16:56:28.945Z,8.60
2022-11-29T16:59:26.929Z,8.60
2022-11-29T17:02:15.125Z,8.50
2022-11-29T17:05:01.027Z,8.60
2022-11-29T17:07:47.792Z,8.60
2022-11-29T17:10:33.943Z,8.60
2022-11-29T17:13:20.166Z,8.60
2022-11-29T17:16:11.485Z,8.60
2022-11-29T17:18:57.627Z,8.60
2022-11-29T17:21:44.464Z,8.60
2022-11-29T17:24:30.844Z,8.60
2022-11-29T17:27:17.154Z,8.60
2022-11-29T17:30:05.339Z,8.60
2022-11-29T17:32:51.539Z,8.60
2022-11-29T17:35:40.149Z,8.60
2022-11-29T17:38:29.674Z,8.60
2022-11-29T17:41:22.484Z,8.60
2022-11-29T17:44:08.469Z,8.60
2022-11-29T17:46:54.659Z,8.60
2022-11-29T17:49:40.843Z,8.60
2022-11-29T17:52:29.689Z,8.60
2022-11-29T17:55:20.374Z,8.70
2022-11-29T17:58:06.564Z,8.60
2022-11-29T18:01:02.001Z,8.70
2022-11-29T18:03:51.429Z,8.70
2022-11-29T18:06:39.500Z,8.70
2022-11-29T18:09:25.831Z,8.70
2022-11-29T18:12:12.150Z,8.60
2022-11-29T18:14:57.827Z,8.60
2022-11-29T18:17:44.062Z,8.70
2022-11-29T18:20:30.140Z,8.70
2022-11-29T18:23:16.105Z,8.60
2022-11-29T18:26:14.583Z,8.70
2022-11-29T18:29:01.199Z,8.70
2022-11-29T18:31:56.508Z,8.70
2022-11-29T18:34:42.393Z,8.60
2022-11-29T18:37:47.533Z,8.60
2022-11-29T18:40:37.742Z,8.60
2022-11-29T18:43:24.276Z,8.70
2022-11-29T18:46:18.362Z,8.70
2022-11-29T18:49:07.198Z,8.70
2022-11-29T18:51:53.649Z,8.70
2022-11-29T18:54:39.965Z,8.60
2022-11-29T18:57:25.864Z,8.60
2022-11-29T19:00:12.389Z,8.60
2022-11-29T19:02:58.417Z,8.60
2022-11-29T19:05:52.347Z,8.60
2022-11-29T19:08:38.557Z,8.60
2022-11-29T19:11:26.653Z,8.60
2022-11-29T19:14:13.253Z,8.60
2022-11-29T19:16:59.553Z,8.60
2022-11-29T19:19:45.993Z,8.60
2022-11-29T19:22:32.233Z,8.60
2022-11-29T19:25:18.231Z,8.60
2022-11-29T19:28:06.879Z,8.60
2022-11-29T19:30:57.710Z,8.60
2022-11-29T19:33:45.042Z,8.60
2022-11-29T19:36:34.296Z,8.60
2022-11-29T19:39:20.547Z,8.60
2022-11-29T19:42:07.844Z,8.60
2022-11-29T19:45:15.794Z,8.60
2022-11-29T19:48:00.365Z,8.60
2022-11-29T19:50:46.189Z,8.60
2022-11-29T19:53:35.987Z,8.60
2022-11-29T19:56:22.796Z,8.60
2022-11-29T19:59:09.100Z,8.60
2022-11-29T20:01:55.292Z,8.60
2022-11-29T20:04:41.243Z,8.60
2022-11-29T20:07:27.165Z,8.60
2022-11-29T20:10:13.092Z,8.60
2022-11-29T20:12:59.519Z,8.70
2022-11-29T20:15:45.775Z,8.60
2022-11-29T20:18:35.040Z,8.60
2022-11-29T20:21:24.114Z,8.50
2022-11-29T20:24:14.238Z,8.50
2022-11-29T20:27:00.375Z,8.60
2022-11-29T20:29:46.600Z,8.50
2022-11-29T20:32:34.601Z,8.50
2022-11-29T20:35:20.858Z,8.60
2022-11-29T20:38:27.677Z,8.60
2022-11-29T20:41:22.064Z,8.50
2022-11-29T20:44:14.538Z,8.60
2022-11-29T20:47:01.023Z,8.60
2022-11-29T20:49:48.289Z,8.60
2022-11-29T20:52:50.434Z,8.60
2022-11-29T20:55:43.688Z,8.60
2022-11-29T20:58:36.546Z,8.60
2022-11-29T21:01:22.701Z,8.60
2022-11-29T21:04:08.912Z,8.60
2022-11-29T21:06:56.850Z,8.60
2022-11-29T21:09:42.957Z,8.60
2022-11-29T21:12:30.125Z,8.60
2022-11-29T21:15:16.848Z,8.60
2022-11-29T21:18:03.147Z,8.60
2022-11-29T21:20:58.280Z,8.60
2022-11-29T21:23:55.356Z,8.60
2022-11-29T21:26:49.655Z,8.60
2022-11-29T21:29:36.342Z,8.60
2022-11-29T21:32:25.112Z,8.60
2022-11-29T21:35:12.518Z,8.60
2022-11-29T21:38:01.760Z,8.60
2022-11-29T21:40:47.968Z,8.60
2022-11-29T21:44:04.468Z,8.70
2022-11-29T21:46:40.004Z,8.70
2022-11-29T21:49:29.076Z,8.70
2022-11-29T21:52:19.199Z,8.70
2022-11-29T21:55:09.510Z,8.70
2022-11-29T21:57:58.858Z,8.70
2022-11-29T22:00:45.190Z,8.70
2022-11-29T22:03:31.134Z,8.70
2022-11-29T22:06:18.733Z,8.70
2022-11-29T22:09:10.540Z,8.70
2022-11-29T22:12:25.758Z,8.70
2022-11-29T22:15:14.009Z,8.70
2022-11-29T22:18:00.467Z,8.70
2022-11-29T22:20:47.367Z,8.70
2022-11-29T22:23:34.401Z,8.70
2022-11-29T22:26:22.796Z,8.70
2022-11-29T22:29:09.019Z,8.70
2022-11-29T22:31:58.803Z,8.70
2022-11-29T22:34:45.158Z,8.70
2022-11-29T22:37:31.623Z,8.70
2022-11-29T22:40:17.529Z,8.70
2022-11-29T22:43:04.009Z,8.70
2022-11-29T22:45:50.266Z,8.70
2022-11-29T22:48:39.019Z,8.70
2022-11-29T22:51:34.080Z,8.70
2022-11-29T22:54:20.271Z,8.70
2022-11-29T22:57:06.491Z,8.70
2022-11-29T22:59:52.296Z,8.70
2022-11-29T23:02:38.272Z,8.70
2022-11-29T23:05:27.218Z,8.70
2022-11-29T23:08:15.367Z,8.70
2022-11-29T23:11:04.291Z,8.60
2022-11-29T23:13:50.569Z,8.70
2022-11-29T23:16:36.996Z,8.70
2022-11-29T23:19:23.264Z,8.70
2022-11-29T23:22:09.441Z,8.70
2022-11-29T23:24:55.473Z,8.70
2022-11-29T23:27:41.242Z,8.70
2022-11-29T23:30:27.245Z,8.70
2022-11-29T23:33:13.139Z,8.70
2022-11-29T23:36:04.673Z,8.70
2022-11-29T23:38:51.012Z,8.70
2022-11-29T23:41:37.959Z,8.60
2022-11-29T23:44:24.120Z,8.70
2022-11-29T23:47:10.062Z,8.70
2022-11-29T23:49:56.051Z,8.70
2022-11-29T23:52:42.034Z,8.70
2022-11-29T23:55:31.298Z,8.70
2022-11-29T23:58:17.282Z,8.70
